Terminal Aerodrome Forecast
Issued by NWS Green Bay, WI

Home | Current Version | Previous Version | Graphics & Text | Print | Product List | Glossary On
Versions: 1 2 3 4 5 6 7 8 9 10 11 12 13
000
FTUS43 KGRB 180520
TAFGRB
TAF
KGRB 180520Z 1806/1906 21006KT P6SM SKC WS010/24035KT
     FM181500 21015G24KT P6SM SKC
     FM182300 21012KT P6SM SCT200 WS012/23040KT
     FM190500 24008KT P6SM SKC=

USA.gov is the U.S. government's official web portal to all federal, state and local government web resources and services.